Aviation Digital Data Service (ADDS)

Output produced by METARs form (2318 UTC 29 April 2017)
found at http://aviationweather.gov/adds/metars/
 
KMPV 292308Z 2923/3018 31015G25KT P6SM BKN070 
     FM300400 34007KT P6SM FEW250 
     FM301400 01004KT P6SM BKN110 
     FM301700 00000KT P6SM VCSH BKN070